sensor_id;sensor_type;location;lat;lon;timestamp;P1;durP1;ratioP1;P2;durP2;ratioP2
49153;SDS011;49455;52.252;9.124;2024-01-30T00:03:50;17.17;;;11.75;;
49153;SDS011;49455;52.252;9.124;2024-01-30T00:08:50;17.70;;;11.98;;
49153;SDS011;49455;52.252;9.124;2024-01-30T00:13:54;18.55;;;12.55;;
49153;SDS011;49455;52.252;9.124;2024-01-30T00:18:54;19.08;;;12.13;;
49153;SDS011;49455;52.252;9.124;2024-01-30T00:23:55;16.73;;;11.25;;
49153;SDS011;49455;52.252;9.124;2024-01-30T00:28:55;22.42;;;12.98;;
49153;SDS011;49455;52.252;9.124;2024-01-30T00:33:56;19.65;;;12.10;;
49153;SDS011;49455;52.252;9.124;2024-01-30T00:38:56;19.67;;;11.90;;
49153;SDS011;49455;52.252;9.124;2024-01-30T00:43:57;18.55;;;12.38;;
49153;SDS011;49455;52.252;9.124;2024-01-30T00:48:58;17.40;;;11.35;;
49153;SDS011;49455;52.252;9.124;2024-01-30T00:53:58;19.67;;;11.38;;
49153;SDS011;49455;52.252;9.124;2024-01-30T00:58:58;17.77;;;12.48;;
49153;SDS011;49455;52.252;9.124;2024-01-30T01:03:59;20.60;;;12.82;;
49153;SDS011;49455;52.252;9.124;2024-01-30T01:08:59;20.25;;;13.23;;
49153;SDS011;49455;52.252;9.124;2024-01-30T01:14:00;18.30;;;12.38;;
49153;SDS011;49455;52.252;9.124;2024-01-30T01:19:00;22.08;;;13.32;;
49153;SDS011;49455;52.252;9.124;2024-01-30T01:24:01;19.50;;;12.57;;
49153;SDS011;49455;52.252;9.124;2024-01-30T01:29:02;21.05;;;13.20;;
49153;SDS011;49455;52.252;9.124;2024-01-30T01:34:02;19.75;;;13.00;;
49153;SDS011;49455;52.252;9.124;2024-01-30T01:39:03;19.10;;;12.88;;
49153;SDS011;49455;52.252;9.124;2024-01-30T01:44:03;19.00;;;12.15;;
49153;SDS011;49455;52.252;9.124;2024-01-30T01:49:04;19.48;;;12.63;;
49153;SDS011;49455;52.252;9.124;2024-01-30T01:54:05;19.52;;;12.55;;
49153;SDS011;49455;52.252;9.124;2024-01-30T01:59:07;22.23;;;13.48;;
49153;SDS011;49455;52.252;9.124;2024-01-30T02:04:08;23.02;;;12.75;;
49153;SDS011;49455;52.252;9.124;2024-01-30T02:09:08;20.70;;;12.98;;
49153;SDS011;49455;52.252;9.124;2024-01-30T02:14:09;19.05;;;13.10;;
49153;SDS011;49455;52.252;9.124;2024-01-30T02:19:10;19.55;;;12.55;;
49153;SDS011;49455;52.252;9.124;2024-01-30T02:24:10;24.20;;;13.93;;
49153;SDS011;49455;52.252;9.124;2024-01-30T02:29:10;19.88;;;13.00;;
49153;SDS011;49455;52.252;9.124;2024-01-30T02:34:11;19.35;;;12.85;;
49153;SDS011;49455;52.252;9.124;2024-01-30T02:39:11;20.60;;;12.48;;
49153;SDS011;49455;52.252;9.124;2024-01-30T02:44:12;20.50;;;12.18;;
49153;SDS011;49455;52.252;9.124;2024-01-30T02:49:12;20.25;;;12.88;;
49153;SDS011;49455;52.252;9.124;2024-01-30T02:54:13;20.73;;;12.07;;
49153;SDS011;49455;52.252;9.124;2024-01-30T02:59:13;22.25;;;13.20;;
49153;SDS011;49455;52.252;9.124;2024-01-30T03:04:14;18.95;;;11.50;;
49153;SDS011;49455;52.252;9.124;2024-01-30T03:09:17;21.98;;;13.65;;
49153;SDS011;49455;52.252;9.124;2024-01-30T03:14:18;21.85;;;14.18;;
49153;SDS011;49455;52.252;9.124;2024-01-30T03:19:19;21.35;;;14.43;;
49153;SDS011;49455;52.252;9.124;2024-01-30T03:24:19;21.73;;;14.68;;
49153;SDS011;49455;52.252;9.124;2024-01-30T03:29:20;25.00;;;14.63;;
49153;SDS011;49455;52.252;9.124;2024-01-30T03:34:20;25.00;;;15.07;;
49153;SDS011;49455;52.252;9.124;2024-01-30T03:39:21;23.90;;;15.98;;
49153;SDS011;49455;52.252;9.124;2024-01-30T03:44:21;26.10;;;15.95;;
49153;SDS011;49455;52.252;9.124;2024-01-30T03:49:21;27.08;;;16.08;;
49153;SDS011;49455;52.252;9.124;2024-01-30T03:54:22;27.60;;;16.45;;
49153;SDS011;49455;52.252;9.124;2024-01-30T03:59:22;27.38;;;16.00;;
49153;SDS011;49455;52.252;9.124;2024-01-30T04:04:23;25.00;;;14.65;;
49153;SDS011;49455;52.252;9.124;2024-01-30T04:09:23;24.23;;;15.07;;
49153;SDS011;49455;52.252;9.124;2024-01-30T04:14:24;22.25;;;14.27;;
49153;SDS011;49455;52.252;9.124;2024-01-30T04:19:24;25.83;;;15.50;;
49153;SDS011;49455;52.252;9.124;2024-01-30T04:24:25;28.65;;;16.67;;
49153;SDS011;49455;52.252;9.124;2024-01-30T04:29:25;28.25;;;15.90;;
49153;SDS011;49455;52.252;9.124;2024-01-30T04:34:26;26.40;;;16.10;;
49153;SDS011;49455;52.252;9.124;2024-01-30T04:39:26;26.60;;;15.65;;
49153;SDS011;49455;52.252;9.124;2024-01-30T04:44:27;25.50;;;15.13;;
49153;SDS011;49455;52.252;9.124;2024-01-30T04:49:27;26.23;;;15.95;;
49153;SDS011;49455;52.252;9.124;2024-01-30T04:54:28;24.48;;;15.40;;
49153;SDS011;49455;52.252;9.124;2024-01-30T04:59:28;24.83;;;15.30;;
49153;SDS011;49455;52.252;9.124;2024-01-30T05:04:29;26.55;;;15.50;;
49153;SDS011;49455;52.252;9.124;2024-01-30T05:09:29;24.33;;;15.18;;
49153;SDS011;49455;52.252;9.124;2024-01-30T05:14:30;25.42;;;15.48;;
49153;SDS011;49455;52.252;9.124;2024-01-30T09:40:22;21.02;;;12.48;;
49153;SDS011;49455;52.252;9.124;2024-01-30T09:45:24;20.17;;;11.75;;
49153;SDS011;49455;52.252;9.124;2024-01-30T09:50:25;20.83;;;11.15;;
49153;SDS011;49455;52.252;9.124;2024-01-30T09:55:27;20.48;;;11.52;;
49153;SDS011;49455;52.252;9.124;2024-01-30T10:00:27;17.50;;;10.75;;
49153;SDS011;49455;52.252;9.124;2024-01-30T10:05:28;18.05;;;11.45;;
49153;SDS011;49455;52.252;9.124;2024-01-30T10:10:31;19.70;;;12.15;;
49153;SDS011;49455;52.252;9.124;2024-01-30T10:15:32;17.17;;;11.57;;
49153;SDS011;49455;52.252;9.124;2024-01-30T10:20:33;19.40;;;12.15;;
49153;SDS011;49455;52.252;9.124;2024-01-30T10:25:34;17.98;;;10.98;;
49153;SDS011;49455;52.252;9.124;2024-01-30T10:30:35;16.27;;;10.65;;
49153;SDS011;49455;52.252;9.124;2024-01-30T10:35:35;16.08;;;10.63;;
49153;SDS011;49455;52.252;9.124;2024-01-30T10:40:36;17.35;;;10.18;;
49153;SDS011;49455;52.252;9.124;2024-01-30T10:45:39;15.32;;;10.10;;
49153;SDS011;49455;52.252;9.124;2024-01-30T10:50:43;17.85;;;10.23;;
49153;SDS011;49455;52.252;9.124;2024-01-30T10:55:44;18.05;;;11.18;;
49153;SDS011;49455;52.252;9.124;2024-01-30T11:00:46;15.82;;;10.80;;
49153;SDS011;49455;52.252;9.124;2024-01-30T11:05:49;19.05;;;11.18;;
49153;SDS011;49455;52.252;9.124;2024-01-30T11:10:54;16.80;;;11.05;;
49153;SDS011;49455;52.252;9.124;2024-01-30T11:16:04;17.30;;;10.50;;
49153;SDS011;49455;52.252;9.124;2024-01-30T11:21:24;15.77;;;10.75;;
49153;SDS011;49455;52.252;9.124;2024-01-30T11:26:28;14.95;;;10.50;;
49153;SDS011;49455;52.252;9.124;2024-01-30T11:31:30;14.95;;;9.77;;
49153;SDS011;49455;52.252;9.124;2024-01-30T11:36:31;16.88;;;10.80;;
49153;SDS011;49455;52.252;9.124;2024-01-30T11:41:35;15.13;;;9.95;;
49153;SDS011;49455;52.252;9.124;2024-01-30T11:46:54;17.27;;;10.13;;
49153;SDS011;49455;52.252;9.124;2024-01-30T11:52:15;13.80;;;9.35;;
49153;SDS011;49455;52.252;9.124;2024-01-30T11:57:41;17.80;;;11.05;;
49153;SDS011;49455;52.252;9.124;2024-01-30T12:02:42;18.48;;;12.27;;
49153;SDS011;49455;52.252;9.124;2024-01-30T12:07:49;16.90;;;10.52;;
49153;SDS011;49455;52.252;9.124;2024-01-30T12:12:50;16.17;;;11.25;;
49153;SDS011;49455;52.252;9.124;2024-01-30T12:17:50;15.98;;;10.90;;
49153;SDS011;49455;52.252;9.124;2024-01-30T12:22:51;17.77;;;10.88;;
49153;SDS011;49455;52.252;9.124;2024-01-30T12:27:52;17.73;;;10.27;;
49153;SDS011;49455;52.252;9.124;2024-01-30T12:38:40;17.17;;;9.63;;
49153;SDS011;49455;52.252;9.124;2024-01-30T12:43:40;19.48;;;10.52;;
49153;SDS011;49455;52.252;9.124;2024-01-30T12:48:42;15.40;;;9.82;;
49153;SDS011;49455;52.252;9.124;2024-01-30T12:53:42;17.40;;;10.75;;
49153;SDS011;49455;52.252;9.124;2024-01-30T12:58:42;16.25;;;9.98;;
49153;SDS011;49455;52.252;9.124;2024-01-30T13:03:43;16.02;;;10.20;;
49153;SDS011;49455;52.252;9.124;2024-01-30T13:08:44;13.93;;;9.98;;
49153;SDS011;49455;52.252;9.124;2024-01-30T13:13:44;16.13;;;9.70;;
49153;SDS011;49455;52.252;9.124;2024-01-30T13:18:45;20.27;;;9.65;;
49153;SDS011;49455;52.252;9.124;2024-01-30T13:23:45;15.27;;;9.13;;
49153;SDS011;49455;52.252;9.124;2024-01-30T13:28:48;16.75;;;8.57;;
49153;SDS011;49455;52.252;9.124;2024-01-30T13:33:49;18.35;;;9.35;;
49153;SDS011;49455;52.252;9.124;2024-01-30T13:38:49;17.17;;;9.98;;
49153;SDS011;49455;52.252;9.124;2024-01-30T13:43:50;22.17;;;10.02;;
49153;SDS011;49455;52.252;9.124;2024-01-30T13:48:51;15.18;;;9.52;;
49153;SDS011;49455;52.252;9.124;2024-01-30T13:53:52;18.60;;;10.32;;
49153;SDS011;49455;52.252;9.124;2024-01-30T13:59:01;18.83;;;10.45;;
49153;SDS011;49455;52.252;9.124;2024-01-30T14:04:02;19.90;;;10.75;;
49153;SDS011;49455;52.252;9.124;2024-01-30T14:09:03;15.48;;;10.10;;
49153;SDS011;49455;52.252;9.124;2024-01-30T14:14:03;20.80;;;10.50;;
49153;SDS011;49455;52.252;9.124;2024-01-30T14:19:04;17.98;;;10.27;;
49153;SDS011;49455;52.252;9.124;2024-01-30T14:24:05;19.48;;;10.88;;
49153;SDS011;49455;52.252;9.124;2024-01-30T14:29:06;23.45;;;12.98;;
49153;SDS011;49455;52.252;9.124;2024-01-30T14:34:06;20.58;;;11.60;;
49153;SDS011;49455;52.252;9.124;2024-01-30T14:39:07;21.85;;;13.35;;
49153;SDS011;49455;52.252;9.124;2024-01-30T14:44:07;21.73;;;12.95;;
49153;SDS011;49455;52.252;9.124;2024-01-30T14:49:08;26.27;;;13.10;;
49153;SDS011;49455;52.252;9.124;2024-01-30T14:54:09;23.08;;;13.35;;
49153;SDS011;49455;52.252;9.124;2024-01-30T14:59:12;22.33;;;12.32;;
49153;SDS011;49455;52.252;9.124;2024-01-30T15:04:13;22.25;;;11.95;;
49153;SDS011;49455;52.252;9.124;2024-01-30T15:09:14;20.42;;;12.60;;
49153;SDS011;49455;52.252;9.124;2024-01-30T15:14:17;31.95;;;16.27;;
49153;SDS011;49455;52.252;9.124;2024-01-30T15:19:18;21.90;;;13.80;;
49153;SDS011;49455;52.252;9.124;2024-01-30T15:24:19;24.25;;;14.23;;
49153;SDS011;49455;52.252;9.124;2024-01-30T15:29:19;21.60;;;14.88;;
49153;SDS011;49455;52.252;9.124;2024-01-30T15:34:23;25.33;;;14.13;;
49153;SDS011;49455;52.252;9.124;2024-01-30T15:39:24;24.20;;;14.02;;
49153;SDS011;49455;52.252;9.124;2024-01-30T15:44:24;22.50;;;14.48;;
49153;SDS011;49455;52.252;9.124;2024-01-30T15:49:28;21.38;;;15.05;;
49153;SDS011;49455;52.252;9.124;2024-01-30T15:54:28;20.80;;;13.38;;
49153;SDS011;49455;52.252;9.124;2024-01-30T15:59:29;20.60;;;14.63;;
49153;SDS011;49455;52.252;9.124;2024-01-30T16:04:29;22.13;;;14.82;;
49153;SDS011;49455;52.252;9.124;2024-01-30T16:09:30;21.20;;;14.85;;
49153;SDS011;49455;52.252;9.124;2024-01-30T16:14:31;22.20;;;14.57;;
49153;SDS011;49455;52.252;9.124;2024-01-30T16:19:31;19.95;;;13.93;;
49153;SDS011;49455;52.252;9.124;2024-01-30T16:24:32;20.52;;;14.52;;
49153;SDS011;49455;52.252;9.124;2024-01-30T16:29:32;19.88;;;13.63;;
49153;SDS011;49455;52.252;9.124;2024-01-30T16:34:34;20.40;;;13.40;;
49153;SDS011;49455;52.252;9.124;2024-01-30T16:39:35;22.40;;;13.95;;
49153;SDS011;49455;52.252;9.124;2024-01-30T16:44:35;20.38;;;13.85;;
49153;SDS011;49455;52.252;9.124;2024-01-30T16:49:36;22.10;;;14.15;;
49153;SDS011;49455;52.252;9.124;2024-01-30T16:54:36;22.70;;;14.25;;
49153;SDS011;49455;52.252;9.124;2024-01-30T16:59:36;20.25;;;13.63;;
49153;SDS011;49455;52.252;9.124;2024-01-30T17:04:37;21.85;;;13.10;;
49153;SDS011;49455;52.252;9.124;2024-01-30T17:09:38;22.33;;;13.05;;
49153;SDS011;49455;52.252;9.124;2024-01-30T17:14:38;20.40;;;14.00;;
49153;SDS011;49455;52.252;9.124;2024-01-30T17:19:39;26.55;;;18.48;;
49153;SDS011;49455;52.252;9.124;2024-01-30T17:24:39;21.85;;;13.73;;
49153;SDS011;49455;52.252;9.124;2024-01-30T17:29:40;25.83;;;15.55;;
49153;SDS011;49455;52.252;9.124;2024-01-30T17:34:40;27.77;;;16.45;;
49153;SDS011;49455;52.252;9.124;2024-01-30T17:39:41;19.05;;;11.65;;
49153;SDS011;49455;52.252;9.124;2024-01-30T17:44:41;19.02;;;11.77;;
49153;SDS011;49455;52.252;9.124;2024-01-30T17:49:42;19.85;;;11.07;;
49153;SDS011;49455;52.252;9.124;2024-01-30T17:54:42;14.90;;;8.80;;
49153;SDS011;49455;52.252;9.124;2024-01-30T17:59:43;13.40;;;7.95;;
49153;SDS011;49455;52.252;9.124;2024-01-30T18:04:44;16.85;;;8.95;;
49153;SDS011;49455;52.252;9.124;2024-01-30T18:09:44;13.70;;;8.38;;
49153;SDS011;49455;52.252;9.124;2024-01-30T18:14:48;13.32;;;8.32;;
49153;SDS011;49455;52.252;9.124;2024-01-30T18:19:49;13.35;;;8.00;;
49153;SDS011;49455;52.252;9.124;2024-01-30T18:30:07;13.40;;;7.30;;
49153;SDS011;49455;52.252;9.124;2024-01-30T18:35:08;16.25;;;7.20;;
49153;SDS011;49455;52.252;9.124;2024-01-30T18:40:09;12.77;;;7.10;;
49153;SDS011;49455;52.252;9.124;2024-01-30T18:45:10;11.23;;;5.95;;
49153;SDS011;49455;52.252;9.124;2024-01-30T18:50:11;12.95;;;6.15;;
49153;SDS011;49455;52.252;9.124;2024-01-30T18:55:11;9.57;;;6.07;;
49153;SDS011;49455;52.252;9.124;2024-01-30T19:00:12;10.32;;;5.75;;
49153;SDS011;49455;52.252;9.124;2024-01-30T19:05:13;10.32;;;5.70;;
49153;SDS011;49455;52.252;9.124;2024-01-30T19:10:13;11.27;;;5.75;;
49153;SDS011;49455;52.252;9.124;2024-01-30T19:15:14;9.82;;;5.55;;
49153;SDS011;49455;52.252;9.124;2024-01-30T19:20:14;10.50;;;5.28;;
49153;SDS011;49455;52.252;9.124;2024-01-30T19:25:15;9.27;;;4.43;;
49153;SDS011;49455;52.252;9.124;2024-01-30T19:30:16;8.02;;;4.28;;
49153;SDS011;49455;52.252;9.124;2024-01-30T19:35:16;6.00;;;3.90;;
49153;SDS011;49455;52.252;9.124;2024-01-30T19:40:17;7.40;;;4.13;;
49153;SDS011;49455;52.252;9.124;2024-01-30T19:45:18;6.93;;;4.50;;
49153;SDS011;49455;52.252;9.124;2024-01-30T19:50:18;7.47;;;4.00;;
49153;SDS011;49455;52.252;9.124;2024-01-30T19:55:19;9.60;;;5.10;;
49153;SDS011;49455;52.252;9.124;2024-01-30T20:00:19;8.75;;;5.20;;
49153;SDS011;49455;52.252;9.124;2024-01-30T20:05:20;10.02;;;5.85;;
49153;SDS011;49455;52.252;9.124;2024-01-30T20:10:21;8.43;;;5.50;;
49153;SDS011;49455;52.252;9.124;2024-01-30T20:15:21;9.57;;;5.80;;
49153;SDS011;49455;52.252;9.124;2024-01-30T20:20:22;10.88;;;6.32;;
49153;SDS011;49455;52.252;9.124;2024-01-30T20:25:22;10.68;;;5.80;;
49153;SDS011;49455;52.252;9.124;2024-01-30T20:30:23;10.68;;;6.13;;
49153;SDS011;49455;52.252;9.124;2024-01-30T20:35:23;10.85;;;6.40;;
49153;SDS011;49455;52.252;9.124;2024-01-30T20:40:24;8.82;;;5.75;;
49153;SDS011;49455;52.252;9.124;2024-01-30T20:45:24;10.25;;;6.22;;
49153;SDS011;49455;52.252;9.124;2024-01-30T20:50:25;10.60;;;6.90;;
49153;SDS011;49455;52.252;9.124;2024-01-30T20:55:26;12.48;;;6.97;;
49153;SDS011;49455;52.252;9.124;2024-01-30T21:00:26;12.95;;;7.18;;
49153;SDS011;49455;52.252;9.124;2024-01-30T21:05:27;12.30;;;7.28;;
49153;SDS011;49455;52.252;9.124;2024-01-30T21:10:27;14.43;;;7.78;;
49153;SDS011;49455;52.252;9.124;2024-01-30T21:15:28;15.43;;;7.88;;
49153;SDS011;49455;52.252;9.124;2024-01-30T21:20:28;16.45;;;8.80;;
49153;SDS011;49455;52.252;9.124;2024-01-30T21:25:29;13.63;;;7.80;;
49153;SDS011;49455;52.252;9.124;2024-01-30T21:30:30;15.52;;;9.02;;
49153;SDS011;49455;52.252;9.124;2024-01-30T21:35:30;14.43;;;7.93;;
49153;SDS011;49455;52.252;9.124;2024-01-30T21:40:31;15.35;;;8.30;;
49153;SDS011;49455;52.252;9.124;2024-01-30T21:45:31;14.57;;;8.35;;
49153;SDS011;49455;52.252;9.124;2024-01-30T21:50:32;16.00;;;8.50;;
49153;SDS011;49455;52.252;9.124;2024-01-30T21:55:33;16.02;;;8.18;;
